sensor_id;sensor_type;location;lat;lon;timestamp;temperature;humidity
12588;DHT22;6359;51.450;7.346;2023-04-25T00:01:57;5.70;99.90
12588;DHT22;6359;51.450;7.346;2023-04-25T00:04:25;5.80;99.90
12588;DHT22;6359;51.450;7.346;2023-04-25T00:06:54;5.80;99.90
12588;DHT22;6359;51.450;7.346;2023-04-25T00:09:21;5.90;99.90
12588;DHT22;6359;51.450;7.346;2023-04-25T00:11:48;5.90;99.90
12588;DHT22;6359;51.450;7.346;2023-04-25T00:14:15;6.00;99.90
12588;DHT22;6359;51.450;7.346;2023-04-25T00:16:42;6.00;99.90
12588;DHT22;6359;51.450;7.346;2023-04-25T00:19:09;6.00;99.90
12588;DHT22;6359;51.450;7.346;2023-04-25T00:21:36;6.10;99.90
12588;DHT22;6359;51.450;7.346;2023-04-25T00:24:07;6.10;99.90
12588;DHT22;6359;51.450;7.346;2023-04-25T00:26:34;6.10;99.90
12588;DHT22;6359;51.450;7.346;2023-04-25T00:29:01;6.20;99.90
12588;DHT22;6359;51.450;7.346;2023-04-25T00:31:28;6.20;99.90
12588;DHT22;6359;51.450;7.346;2023-04-25T00:33:55;6.20;99.90
12588;DHT22;6359;51.450;7.346;2023-04-25T00:36:22;6.20;99.90
12588;DHT22;6359;51.450;7.346;2023-04-25T00:38:49;6.20;99.90
12588;DHT22;6359;51.450;7.346;2023-04-25T00:41:18;6.20;99.90
12588;DHT22;6359;51.450;7.346;2023-04-25T00:43:47;6.30;99.90
12588;DHT22;6359;51.450;7.346;2023-04-25T00:46:14;6.20;99.90
12588;DHT22;6359;51.450;7.346;2023-04-25T00:48:41;6.30;99.90
12588;DHT22;6359;51.450;7.346;2023-04-25T00:51:10;6.30;99.90
12588;DHT22;6359;51.450;7.346;2023-04-25T00:53:40;6.30;99.90
12588;DHT22;6359;51.450;7.346;2023-04-25T00:56:07;6.30;99.90
12588;DHT22;6359;51.450;7.346;2023-04-25T00:58:36;6.40;99.90
12588;DHT22;6359;51.450;7.346;2023-04-25T01:01:04;6.40;99.90
12588;DHT22;6359;51.450;7.346;2023-04-25T01:03:32;6.40;99.90
12588;DHT22;6359;51.450;7.346;2023-04-25T01:06:01;6.40;99.90
12588;DHT22;6359;51.450;7.346;2023-04-25T01:08:28;6.30;99.90
12588;DHT22;6359;51.450;7.346;2023-04-25T01:10:55;6.30;99.90
12588;DHT22;6359;51.450;7.346;2023-04-25T01:13:22;6.30;99.90
12588;DHT22;6359;51.450;7.346;2023-04-25T01:15:51;6.20;99.90
12588;DHT22;6359;51.450;7.346;2023-04-25T01:18:18;6.20;99.90
12588;DHT22;6359;51.450;7.346;2023-04-25T01:20:46;6.20;99.90
12588;DHT22;6359;51.450;7.346;2023-04-25T01:23:15;6.20;99.90
12588;DHT22;6359;51.450;7.346;2023-04-25T01:25:42;6.20;99.90
12588;DHT22;6359;51.450;7.346;2023-04-25T01:28:09;6.20;99.90
12588;DHT22;6359;51.450;7.346;2023-04-25T01:30:36;6.20;99.90
12588;DHT22;6359;51.450;7.346;2023-04-25T01:33:04;6.10;99.90
12588;DHT22;6359;51.450;7.346;2023-04-25T01:35:31;6.10;99.90
12588;DHT22;6359;51.450;7.346;2023-04-25T01:37:58;6.20;99.90
12588;DHT22;6359;51.450;7.346;2023-04-25T01:40:27;6.20;99.90
12588;DHT22;6359;51.450;7.346;2023-04-25T01:42:54;6.20;99.90
12588;DHT22;6359;51.450;7.346;2023-04-25T01:45:21;6.20;99.90
12588;DHT22;6359;51.450;7.346;2023-04-25T01:47:48;6.10;99.90
12588;DHT22;6359;51.450;7.346;2023-04-25T01:50:16;6.10;99.90
12588;DHT22;6359;51.450;7.346;2023-04-25T01:52:44;6.10;99.90
12588;DHT22;6359;51.450;7.346;2023-04-25T01:55:11;6.10;99.90
12588;DHT22;6359;51.450;7.346;2023-04-25T01:57:39;6.20;99.90
12588;DHT22;6359;51.450;7.346;2023-04-25T02:00:07;6.10;99.90
12588;DHT22;6359;51.450;7.346;2023-04-25T02:02:34;6.20;99.90
12588;DHT22;6359;51.450;7.346;2023-04-25T02:05:01;6.10;99.90
12588;DHT22;6359;51.450;7.346;2023-04-25T02:07:28;6.20;99.90
12588;DHT22;6359;51.450;7.346;2023-04-25T02:09:55;6.20;99.90
12588;DHT22;6359;51.450;7.346;2023-04-25T02:12:22;6.20;99.90
12588;DHT22;6359;51.450;7.346;2023-04-25T02:14:50;6.30;99.90
12588;DHT22;6359;51.450;7.346;2023-04-25T02:17:17;6.20;99.90
12588;DHT22;6359;51.450;7.346;2023-04-25T02:19:44;6.30;99.90
12588;DHT22;6359;51.450;7.346;2023-04-25T02:22:11;6.30;99.90
12588;DHT22;6359;51.450;7.346;2023-04-25T02:24:39;6.30;99.90
12588;DHT22;6359;51.450;7.346;2023-04-25T02:27:06;6.20;99.90
12588;DHT22;6359;51.450;7.346;2023-04-25T02:29:33;6.20;99.90
12588;DHT22;6359;51.450;7.346;2023-04-25T02:32:01;6.30;99.90
12588;DHT22;6359;51.450;7.346;2023-04-25T02:34:28;6.30;99.90
12588;DHT22;6359;51.450;7.346;2023-04-25T02:36:55;6.30;99.90
12588;DHT22;6359;51.450;7.346;2023-04-25T02:39:22;6.40;99.90
12588;DHT22;6359;51.450;7.346;2023-04-25T02:41:51;6.40;99.90
12588;DHT22;6359;51.450;7.346;2023-04-25T02:44:18;6.40;99.90
12588;DHT22;6359;51.450;7.346;2023-04-25T02:46:45;6.30;99.90
12588;DHT22;6359;51.450;7.346;2023-04-25T02:49:13;6.40;99.90
12588;DHT22;6359;51.450;7.346;2023-04-25T02:51:40;6.40;99.90
12588;DHT22;6359;51.450;7.346;2023-04-25T02:54:07;6.20;99.90
12588;DHT22;6359;51.450;7.346;2023-04-25T02:56:34;6.20;99.90
12588;DHT22;6359;51.450;7.346;2023-04-25T02:59:01;6.20;99.90
12588;DHT22;6359;51.450;7.346;2023-04-25T03:01:28;6.20;99.90
12588;DHT22;6359;51.450;7.346;2023-04-25T03:03:54;6.20;99.90
12588;DHT22;6359;51.450;7.346;2023-04-25T03:06:23;6.20;99.90
12588;DHT22;6359;51.450;7.346;2023-04-25T03:08:50;6.20;99.90
12588;DHT22;6359;51.450;7.346;2023-04-25T03:11:16;6.20;99.90
12588;DHT22;6359;51.450;7.346;2023-04-25T03:13:45;6.20;99.90
12588;DHT22;6359;51.450;7.346;2023-04-25T03:16:12;6.20;99.90
12588;DHT22;6359;51.450;7.346;2023-04-25T03:18:39;6.20;99.90
12588;DHT22;6359;51.450;7.346;2023-04-25T03:21:06;6.20;99.90
12588;DHT22;6359;51.450;7.346;2023-04-25T03:23:34;6.10;99.90
12588;DHT22;6359;51.450;7.346;2023-04-25T03:26:01;6.10;99.90
12588;DHT22;6359;51.450;7.346;2023-04-25T03:28:28;6.10;99.90
12588;DHT22;6359;51.450;7.346;2023-04-25T03:30:55;6.10;99.90
12588;DHT22;6359;51.450;7.346;2023-04-25T03:33:22;6.10;99.90
12588;DHT22;6359;51.450;7.346;2023-04-25T03:35:49;6.00;99.90
12588;DHT22;6359;51.450;7.346;2023-04-25T03:38:16;6.00;99.90
12588;DHT22;6359;51.450;7.346;2023-04-25T03:40:45;5.90;99.90
12588;DHT22;6359;51.450;7.346;2023-04-25T03:43:12;5.90;99.90
12588;DHT22;6359;51.450;7.346;2023-04-25T03:45:39;5.90;99.90
12588;DHT22;6359;51.450;7.346;2023-04-25T03:48:06;5.90;99.90
12588;DHT22;6359;51.450;7.346;2023-04-25T03:50:32;6.00;99.90
12588;DHT22;6359;51.450;7.346;2023-04-25T03:52:59;6.00;99.90
12588;DHT22;6359;51.450;7.346;2023-04-25T03:55:26;6.00;99.90
12588;DHT22;6359;51.450;7.346;2023-04-25T03:57:54;5.90;99.90
12588;DHT22;6359;51.450;7.346;2023-04-25T04:00:23;6.00;99.90
12588;DHT22;6359;51.450;7.346;2023-04-25T04:02:50;5.90;99.90
12588;DHT22;6359;51.450;7.346;2023-04-25T04:05:17;5.90;99.90
12588;DHT22;6359;51.450;7.346;2023-04-25T04:07:44;5.90;99.90
12588;DHT22;6359;51.450;7.346;2023-04-25T04:10:11;5.90;99.90
12588;DHT22;6359;51.450;7.346;2023-04-25T04:12:38;6.00;99.90
12588;DHT22;6359;51.450;7.346;2023-04-25T04:15:07;6.00;99.90
12588;DHT22;6359;51.450;7.346;2023-04-25T04:17:35;6.10;99.90
12588;DHT22;6359;51.450;7.346;2023-04-25T04:20:02;6.10;99.90
12588;DHT22;6359;51.450;7.346;2023-04-25T04:22:29;6.10;99.90
12588;DHT22;6359;51.450;7.346;2023-04-25T04:24:56;5.90;99.90
12588;DHT22;6359;51.450;7.346;2023-04-25T04:27:23;5.60;99.90
12588;DHT22;6359;51.450;7.346;2023-04-25T04:29:50;5.40;99.90
12588;DHT22;6359;51.450;7.346;2023-04-25T04:32:20;5.30;99.90
12588;DHT22;6359;51.450;7.346;2023-04-25T04:34:48;5.30;99.90
12588;DHT22;6359;51.450;7.346;2023-04-25T04:37:15;5.30;99.90
12588;DHT22;6359;51.450;7.346;2023-04-25T04:39:43;5.30;99.90
12588;DHT22;6359;51.450;7.346;2023-04-25T04:42:09;5.30;99.90
12588;DHT22;6359;51.450;7.346;2023-04-25T04:44:37;5.40;99.90
12588;DHT22;6359;51.450;7.346;2023-04-25T04:47:04;5.40;99.90
12588;DHT22;6359;51.450;7.346;2023-04-25T04:49:33;5.60;99.90
12588;DHT22;6359;51.450;7.346;2023-04-25T04:52:00;5.70;99.90
12588;DHT22;6359;51.450;7.346;2023-04-25T04:54:27;5.70;99.90
12588;DHT22;6359;51.450;7.346;2023-04-25T04:56:54;5.90;99.90
12588;DHT22;6359;51.450;7.346;2023-04-25T04:59:20;5.90;99.90
12588;DHT22;6359;51.450;7.346;2023-04-25T05:01:47;5.90;99.90
12588;DHT22;6359;51.450;7.346;2023-04-25T05:04:14;5.90;99.90
12588;DHT22;6359;51.450;7.346;2023-04-25T05:06:42;5.90;99.90
12588;DHT22;6359;51.450;7.346;2023-04-25T05:09:09;5.80;99.90
12588;DHT22;6359;51.450;7.346;2023-04-25T05:11:36;5.80;99.90
12588;DHT22;6359;51.450;7.346;2023-04-25T05:14:03;5.80;99.90
12588;DHT22;6359;51.450;7.346;2023-04-25T05:16:30;5.80;99.90
12588;DHT22;6359;51.450;7.346;2023-04-25T05:18:57;5.90;99.90
12588;DHT22;6359;51.450;7.346;2023-04-25T05:21:24;5.90;99.90
12588;DHT22;6359;51.450;7.346;2023-04-25T05:23:52;6.00;99.90
12588;DHT22;6359;51.450;7.346;2023-04-25T05:26:19;6.00;99.90
12588;DHT22;6359;51.450;7.346;2023-04-25T05:28:46;5.90;99.90
12588;DHT22;6359;51.450;7.346;2023-04-25T05:31:13;6.00;99.90
12588;DHT22;6359;51.450;7.346;2023-04-25T05:33:40;6.00;99.90
12588;DHT22;6359;51.450;7.346;2023-04-25T05:36:07;6.00;99.90
12588;DHT22;6359;51.450;7.346;2023-04-25T05:38:34;6.10;99.90
12588;DHT22;6359;51.450;7.346;2023-04-25T05:41:02;6.20;99.90
12588;DHT22;6359;51.450;7.346;2023-04-25T05:43:29;6.50;99.90
12588;DHT22;6359;51.450;7.346;2023-04-25T05:45:56;6.60;99.90
12588;DHT22;6359;51.450;7.346;2023-04-25T05:48:23;6.60;99.90
12588;DHT22;6359;51.450;7.346;2023-04-25T05:50:50;6.60;99.90
12588;DHT22;6359;51.450;7.346;2023-04-25T05:53:18;6.80;99.90
12588;DHT22;6359;51.450;7.346;2023-04-25T05:55:46;6.90;99.90
12588;DHT22;6359;51.450;7.346;2023-04-25T05:58:14;7.00;99.90
12588;DHT22;6359;51.450;7.346;2023-04-25T06:00:41;7.00;99.90
12588;DHT22;6359;51.450;7.346;2023-04-25T06:03:08;7.10;99.90
12588;DHT22;6359;51.450;7.346;2023-04-25T06:05:36;7.10;99.90
12588;DHT22;6359;51.450;7.346;2023-04-25T06:08:03;7.10;99.90
12588;DHT22;6359;51.450;7.346;2023-04-25T06:10:30;7.50;99.90
12588;DHT22;6359;51.450;7.346;2023-04-25T06:12:56;7.90;99.90
12588;DHT22;6359;51.450;7.346;2023-04-25T06:15:25;8.20;99.90
12588;DHT22;6359;51.450;7.346;2023-04-25T06:17:58;8.60;99.90
12588;DHT22;6359;51.450;7.346;2023-04-25T06:20:27;8.80;99.90
12588;DHT22;6359;51.450;7.346;2023-04-25T06:22:54;8.90;99.90
12588;DHT22;6359;51.450;7.346;2023-04-25T06:25:21;9.10;99.90
12588;DHT22;6359;51.450;7.346;2023-04-25T06:27:48;9.30;99.90
12588;DHT22;6359;51.450;7.346;2023-04-25T06:30:15;9.50;99.90
12588;DHT22;6359;51.450;7.346;2023-04-25T06:32:45;9.70;99.90
12588;DHT22;6359;51.450;7.346;2023-04-25T06:35:12;9.80;99.90
12588;DHT22;6359;51.450;7.346;2023-04-25T06:37:39;9.90;99.90
12588;DHT22;6359;51.450;7.346;2023-04-25T06:40:07;9.60;99.90
12588;DHT22;6359;51.450;7.346;2023-04-25T06:42:34;9.70;99.90
12588;DHT22;6359;51.450;7.346;2023-04-25T06:45:01;9.80;99.90
12588;DHT22;6359;51.450;7.346;2023-04-25T06:47:28;10.50;99.90
12588;DHT22;6359;51.450;7.346;2023-04-25T06:49:56;11.60;99.90
12588;DHT22;6359;51.450;7.346;2023-04-25T06:52:23;12.70;99.90
12588;DHT22;6359;51.450;7.346;2023-04-25T06:54:50;12.60;99.90
12588;DHT22;6359;51.450;7.346;2023-04-25T06:57:17;11.90;99.90
12588;DHT22;6359;51.450;7.346;2023-04-25T06:59:44;11.30;99.90
12588;DHT22;6359;51.450;7.346;2023-04-25T07:02:11;10.60;99.90
12588;DHT22;6359;51.450;7.346;2023-04-25T07:04:38;10.10;99.90
12588;DHT22;6359;51.450;7.346;2023-04-25T07:07:06;9.60;99.90
12588;DHT22;6359;51.450;7.346;2023-04-25T07:09:33;9.30;99.90
12588;DHT22;6359;51.450;7.346;2023-04-25T07:12:00;9.30;99.90
12588;DHT22;6359;51.450;7.346;2023-04-25T07:14:28;9.40;99.90
12588;DHT22;6359;51.450;7.346;2023-04-25T07:16:54;11.60;99.90
12588;DHT22;6359;51.450;7.346;2023-04-25T07:19:22;12.60;99.90
12588;DHT22;6359;51.450;7.346;2023-04-25T07:21:51;12.30;99.90
12588;DHT22;6359;51.450;7.346;2023-04-25T07:24:20;11.90;99.90
12588;DHT22;6359;51.450;7.346;2023-04-25T07:26:47;11.70;99.90
12588;DHT22;6359;51.450;7.346;2023-04-25T07:29:13;11.70;99.90
12588;DHT22;6359;51.450;7.346;2023-04-25T07:31:41;11.80;99.90
12588;DHT22;6359;51.450;7.346;2023-04-25T07:34:07;11.10;99.90
12588;DHT22;6359;51.450;7.346;2023-04-25T07:36:34;10.70;99.90
12588;DHT22;6359;51.450;7.346;2023-04-25T07:39:01;10.00;99.90
12588;DHT22;6359;51.450;7.346;2023-04-25T07:41:30;9.60;99.90
12588;DHT22;6359;51.450;7.346;2023-04-25T07:43:56;9.50;99.90
12588;DHT22;6359;51.450;7.346;2023-04-25T07:46:23;9.50;99.90
12588;DHT22;6359;51.450;7.346;2023-04-25T07:48:50;9.70;99.90
12588;DHT22;6359;51.450;7.346;2023-04-25T07:51:17;10.10;99.90
12588;DHT22;6359;51.450;7.346;2023-04-25T07:53:45;10.10;99.90
12588;DHT22;6359;51.450;7.346;2023-04-25T07:56:12;10.00;99.90
12588;DHT22;6359;51.450;7.346;2023-04-25T07:58:40;9.70;99.90
12588;DHT22;6359;51.450;7.346;2023-04-25T08:01:07;9.40;99.90
12588;DHT22;6359;51.450;7.346;2023-04-25T08:03:34;9.70;99.90
12588;DHT22;6359;51.450;7.346;2023-04-25T08:06:01;10.00;99.90
12588;DHT22;6359;51.450;7.346;2023-04-25T08:08:28;10.10;99.90
12588;DHT22;6359;51.450;7.346;2023-04-25T08:10:55;10.10;99.90
12588;DHT22;6359;51.450;7.346;2023-04-25T08:13:22;10.20;99.90
12588;DHT22;6359;51.450;7.346;2023-04-25T08:15:50;10.30;99.90
12588;DHT22;6359;51.450;7.346;2023-04-25T08:18:17;10.60;99.90
12588;DHT22;6359;51.450;7.346;2023-04-25T08:20:43;10.90;99.90
12588;DHT22;6359;51.450;7.346;2023-04-25T08:23:10;11.70;99.90
12588;DHT22;6359;51.450;7.346;2023-04-25T08:25:37;12.40;99.90
12588;DHT22;6359;51.450;7.346;2023-04-25T08:28:05;12.90;99.90
12588;DHT22;6359;51.450;7.346;2023-04-25T08:30:31;12.60;99.90
12588;DHT22;6359;51.450;7.346;2023-04-25T08:33:00;12.10;99.90
12588;DHT22;6359;51.450;7.346;2023-04-25T08:35:27;12.30;99.90
12588;DHT22;6359;51.450;7.346;2023-04-25T08:37:54;11.90;99.90
12588;DHT22;6359;51.450;7.346;2023-04-25T08:40:22;11.50;99.90
12588;DHT22;6359;51.450;7.346;2023-04-25T08:42:53;11.40;99.90
12588;DHT22;6359;51.450;7.346;2023-04-25T08:45:20;12.30;99.90
12588;DHT22;6359;51.450;7.346;2023-04-25T08:47:47;12.80;99.90
12588;DHT22;6359;51.450;7.346;2023-04-25T08:50:18;13.20;99.90
12588;DHT22;6359;51.450;7.346;2023-04-25T08:52:49;13.40;99.90
12588;DHT22;6359;51.450;7.346;2023-04-25T08:55:18;13.40;99.90
12588;DHT22;6359;51.450;7.346;2023-04-25T08:57:45;13.10;99.90
12588;DHT22;6359;51.450;7.346;2023-04-25T09:00:13;12.80;99.90
12588;DHT22;6359;51.450;7.346;2023-04-25T09:02:40;12.20;99.90
12588;DHT22;6359;51.450;7.346;2023-04-25T09:05:09;11.70;99.90
12588;DHT22;6359;51.450;7.346;2023-04-25T09:07:37;11.80;99.90
12588;DHT22;6359;51.450;7.346;2023-04-25T09:10:05;11.90;99.90
12588;DHT22;6359;51.450;7.346;2023-04-25T09:12:32;11.80;99.90
12588;DHT22;6359;51.450;7.346;2023-04-25T09:15:04;11.60;99.90
12588;DHT22;6359;51.450;7.346;2023-04-25T09:17:31;11.40;99.90
12588;DHT22;6359;51.450;7.346;2023-04-25T09:20:06;13.10;99.90
12588;DHT22;6359;51.450;7.346;2023-04-25T09:22:34;14.00;99.90
12588;DHT22;6359;51.450;7.346;2023-04-25T09:25:07;14.60;99.90
12588;DHT22;6359;51.450;7.346;2023-04-25T09:27:34;15.00;99.90
12588;DHT22;6359;51.450;7.346;2023-04-25T09:30:01;14.80;99.90
12588;DHT22;6359;51.450;7.346;2023-04-25T09:32:29;15.20;99.90
12588;DHT22;6359;51.450;7.346;2023-04-25T09:34:57;15.50;99.90
12588;DHT22;6359;51.450;7.346;2023-04-25T09:37:25;16.30;99.90
12588;DHT22;6359;51.450;7.346;2023-04-25T09:39:54;16.30;99.90
12588;DHT22;6359;51.450;7.346;2023-04-25T09:42:24;15.40;99.90
12588;DHT22;6359;51.450;7.346;2023-04-25T09:44:53;15.00;99.90
12588;DHT22;6359;51.450;7.346;2023-04-25T09:47:21;13.90;99.90
12588;DHT22;6359;51.450;7.346;2023-04-25T09:49:49;12.80;99.90
12588;DHT22;6359;51.450;7.346;2023-04-25T09:52:18;12.10;99.90
12588;DHT22;6359;51.450;7.346;2023-04-25T09:54:45;11.70;99.90
12588;DHT22;6359;51.450;7.346;2023-04-25T09:57:14;11.10;99.90
12588;DHT22;6359;51.450;7.346;2023-04-25T09:59:46;11.00;99.90
12588;DHT22;6359;51.450;7.346;2023-04-25T10:02:14;10.90;99.90
12588;DHT22;6359;51.450;7.346;2023-04-25T10:04:43;11.00;99.90
12588;DHT22;6359;51.450;7.346;2023-04-25T10:07:12;10.90;99.90
12588;DHT22;6359;51.450;7.346;2023-04-25T10:09:39;11.00;99.90
12588;DHT22;6359;51.450;7.346;2023-04-25T10:12:07;11.20;99.90
12588;DHT22;6359;51.450;7.346;2023-04-25T10:14:34;11.70;99.90
12588;DHT22;6359;51.450;7.346;2023-04-25T10:17:03;11.50;99.90
12588;DHT22;6359;51.450;7.346;2023-04-25T10:19:30;12.10;99.90
12588;DHT22;6359;51.450;7.346;2023-04-25T10:22:05;13.20;99.90
12588;DHT22;6359;51.450;7.346;2023-04-25T10:24:35;14.80;99.90
12588;DHT22;6359;51.450;7.346;2023-04-25T10:27:02;16.30;99.90
12588;DHT22;6359;51.450;7.346;2023-04-25T10:29:29;16.90;99.90
12588;DHT22;6359;51.450;7.346;2023-04-25T10:31:57;16.90;99.90
12588;DHT22;6359;51.450;7.346;2023-04-25T10:34:38;16.50;99.90
12588;DHT22;6359;51.450;7.346;2023-04-25T10:37:09;15.20;99.90
12588;DHT22;6359;51.450;7.346;2023-04-25T10:39:37;14.00;99.90
12588;DHT22;6359;51.450;7.346;2023-04-25T10:42:04;13.10;99.90
12588;DHT22;6359;51.450;7.346;2023-04-25T10:44:33;12.60;99.90
12588;DHT22;6359;51.450;7.346;2023-04-25T10:47:02;12.40;99.90
12588;DHT22;6359;51.450;7.346;2023-04-25T10:49:33;12.20;99.90
12588;DHT22;6359;51.450;7.346;2023-04-25T10:52:17;11.90;99.90
12588;DHT22;6359;51.450;7.346;2023-04-25T10:54:49;11.40;99.90
12588;DHT22;6359;51.450;7.346;2023-04-25T10:57:32;10.80;99.90
12588;DHT22;6359;51.450;7.346;2023-04-25T11:00:05;10.50;99.90
12588;DHT22;6359;51.450;7.346;2023-04-25T11:02:37;10.50;99.90
12588;DHT22;6359;51.450;7.346;2023-04-25T11:05:07;10.90;99.90
12588;DHT22;6359;51.450;7.346;2023-04-25T11:07:38;11.10;99.90
12588;DHT22;6359;51.450;7.346;2023-04-25T11:10:06;11.20;99.90
12588;DHT22;6359;51.450;7.346;2023-04-25T11:12:33;10.80;99.90
12588;DHT22;6359;51.450;7.346;2023-04-25T11:15:01;10.50;99.90
12588;DHT22;6359;51.450;7.346;2023-04-25T11:17:28;10.10;99.90
12588;DHT22;6359;51.450;7.346;2023-04-25T11:19:56;9.80;99.90
12588;DHT22;6359;51.450;7.346;2023-04-25T11:22:24;9.40;99.90
12588;DHT22;6359;51.450;7.346;2023-04-25T11:24:52;9.00;99.90
12588;DHT22;6359;51.450;7.346;2023-04-25T11:27:20;8.90;99.90
12588;DHT22;6359;51.450;7.346;2023-04-25T11:29:47;8.90;99.90
12588;DHT22;6359;51.450;7.346;2023-04-25T11:32:15;9.20;99.90
12588;DHT22;6359;51.450;7.346;2023-04-25T11:34:44;9.30;99.90
12588;DHT22;6359;51.450;7.346;2023-04-25T11:37:11;9.30;99.90
12588;DHT22;6359;51.450;7.346;2023-04-25T11:39:42;9.30;99.90
12588;DHT22;6359;51.450;7.346;2023-04-25T11:42:10;9.30;99.90
12588;DHT22;6359;51.450;7.346;2023-04-25T11:44:38;9.20;99.90
12588;DHT22;6359;51.450;7.346;2023-04-25T11:47:06;9.30;99.90
12588;DHT22;6359;51.450;7.346;2023-04-25T11:49:33;9.50;99.90
12588;DHT22;6359;51.450;7.346;2023-04-25T11:52:01;9.90;99.90
12588;DHT22;6359;51.450;7.346;2023-04-25T11:54:28;10.10;99.90
12588;DHT22;6359;51.450;7.346;2023-04-25T11:56:56;10.50;99.90
12588;DHT22;6359;51.450;7.346;2023-04-25T11:59:24;10.80;99.90
12588;DHT22;6359;51.450;7.346;2023-04-25T12:01:52;11.30;99.90
12588;DHT22;6359;51.450;7.346;2023-04-25T12:04:21;11.80;99.90
12588;DHT22;6359;51.450;7.346;2023-04-25T12:06:49;12.30;99.90
12588;DHT22;6359;51.450;7.346;2023-04-25T12:09:18;12.70;99.90
12588;DHT22;6359;51.450;7.346;2023-04-25T12:11:47;12.80;99.90
12588;DHT22;6359;51.450;7.346;2023-04-25T12:14:22;13.10;99.90
12588;DHT22;6359;51.450;7.346;2023-04-25T12:16:51;13.10;99.90
12588;DHT22;6359;51.450;7.346;2023-04-25T12:19:19;12.60;99.90
12588;DHT22;6359;51.450;7.346;2023-04-25T12:21:47;12.30;99.90
12588;DHT22;6359;51.450;7.346;2023-04-25T12:24:15;12.70;99.90
12588;DHT22;6359;51.450;7.346;2023-04-25T12:26:50;13.00;99.90
12588;DHT22;6359;51.450;7.346;2023-04-25T12:29:20;12.80;99.90
12588;DHT22;6359;51.450;7.346;2023-04-25T12:31:48;12.00;99.90
12588;DHT22;6359;51.450;7.346;2023-04-25T12:34:15;12.00;99.90
12588;DHT22;6359;51.450;7.346;2023-04-25T12:36:42;12.20;99.90
12588;DHT22;6359;51.450;7.346;2023-04-25T12:39:12;12.30;99.90
12588;DHT22;6359;51.450;7.346;2023-04-25T12:41:41;12.50;99.90
12588;DHT22;6359;51.450;7.346;2023-04-25T12:44:07;13.00;99.90
12588;DHT22;6359;51.450;7.346;2023-04-25T12:46:36;13.10;99.90
12588;DHT22;6359;51.450;7.346;2023-04-25T12:49:03;12.70;99.90
12588;DHT22;6359;51.450;7.346;2023-04-25T12:51:31;12.70;99.90
12588;DHT22;6359;51.450;7.346;2023-04-25T12:53:58;12.60;99.90
12588;DHT22;6359;51.450;7.346;2023-04-25T12:56:25;12.80;99.90
12588;DHT22;6359;51.450;7.346;2023-04-25T12:58:53;12.70;99.90
12588;DHT22;6359;51.450;7.346;2023-04-25T13:01:19;12.40;99.90
12588;DHT22;6359;51.450;7.346;2023-04-25T13:03:48;12.50;99.90
12588;DHT22;6359;51.450;7.346;2023-04-25T13:06:15;12.30;99.90
12588;DHT22;6359;51.450;7.346;2023-04-25T13:08:42;11.70;99.90
12588;DHT22;6359;51.450;7.346;2023-04-25T13:11:09;11.50;99.90
12588;DHT22;6359;51.450;7.346;2023-04-25T13:13:37;11.10;99.90
12588;DHT22;6359;51.450;7.346;2023-04-25T13:16:05;10.90;99.90
12588;DHT22;6359;51.450;7.346;2023-04-25T13:18:33;10.80;99.90
12588;DHT22;6359;51.450;7.346;2023-04-25T13:21:01;10.80;99.90
12588;DHT22;6359;51.450;7.346;2023-04-25T13:23:29;10.50;99.90
12588;DHT22;6359;51.450;7.346;2023-04-25T13:25:56;10.50;99.90
12588;DHT22;6359;51.450;7.346;2023-04-25T13:28:24;10.40;99.90
12588;DHT22;6359;51.450;7.346;2023-04-25T13:30:51;10.10;99.90
12588;DHT22;6359;51.450;7.346;2023-04-25T13:33:18;10.00;99.90
12588;DHT22;6359;51.450;7.346;2023-04-25T13:35:46;10.10;99.90
12588;DHT22;6359;51.450;7.346;2023-04-25T13:38:20;10.20;99.90
12588;DHT22;6359;51.450;7.346;2023-04-25T13:40:48;10.30;99.90
12588;DHT22;6359;51.450;7.346;2023-04-25T13:43:15;10.40;99.90
12588;DHT22;6359;51.450;7.346;2023-04-25T13:45:42;10.50;99.90
12588;DHT22;6359;51.450;7.346;2023-04-25T13:48:09;10.70;99.90
12588;DHT22;6359;51.450;7.346;2023-04-25T13:50:36;10.90;99.90
12588;DHT22;6359;51.450;7.346;2023-04-25T13:53:03;11.10;99.90
12588;DHT22;6359;51.450;7.346;2023-04-25T13:55:31;11.10;99.90
12588;DHT22;6359;51.450;7.346;2023-04-25T13:57:59;11.00;99.90
12588;DHT22;6359;51.450;7.346;2023-04-25T14:00:33;10.70;99.90
12588;DHT22;6359;51.450;7.346;2023-04-25T14:03:00;10.90;99.90
12588;DHT22;6359;51.450;7.346;2023-04-25T14:05:30;10.90;99.90
12588;DHT22;6359;51.450;7.346;2023-04-25T14:07:57;11.00;99.90
12588;DHT22;6359;51.450;7.346;2023-04-25T14:10:25;11.20;99.90
12588;DHT22;6359;51.450;7.346;2023-04-25T14:12:53;11.50;99.90
12588;DHT22;6359;51.450;7.346;2023-04-25T14:15:20;11.60;99.90
12588;DHT22;6359;51.450;7.346;2023-04-25T14:17:47;11.80;99.90
12588;DHT22;6359;51.450;7.346;2023-04-25T14:20:14;11.80;99.90
12588;DHT22;6359;51.450;7.346;2023-04-25T14:22:41;11.80;99.90
12588;DHT22;6359;51.450;7.346;2023-04-25T14:25:09;12.10;99.90
12588;DHT22;6359;51.450;7.346;2023-04-25T14:27:36;12.60;99.90
12588;DHT22;6359;51.450;7.346;2023-04-25T14:30:05;12.60;99.90
12588;DHT22;6359;51.450;7.346;2023-04-25T14:32:34;12.50;99.90
12588;DHT22;6359;51.450;7.346;2023-04-25T14:35:01;12.40;99.90
12588;DHT22;6359;51.450;7.346;2023-04-25T14:37:28;12.50;99.90
12588;DHT22;6359;51.450;7.346;2023-04-25T14:39:55;12.40;99.90
12588;DHT22;6359;51.450;7.346;2023-04-25T14:42:22;12.10;99.90
12588;DHT22;6359;51.450;7.346;2023-04-25T14:44:49;12.10;99.90
12588;DHT22;6359;51.450;7.346;2023-04-25T14:47:17;12.30;99.90
12588;DHT22;6359;51.450;7.346;2023-04-25T14:49:44;12.60;99.90
12588;DHT22;6359;51.450;7.346;2023-04-25T14:52:16;12.60;99.90
12588;DHT22;6359;51.450;7.346;2023-04-25T14:54:43;12.70;99.90
12588;DHT22;6359;51.450;7.346;2023-04-25T14:57:10;13.00;99.90
12588;DHT22;6359;51.450;7.346;2023-04-25T14:59:37;12.80;99.90
12588;DHT22;6359;51.450;7.346;2023-04-25T15:02:05;12.50;99.90
12588;DHT22;6359;51.450;7.346;2023-04-25T15:04:34;12.40;99.90
12588;DHT22;6359;51.450;7.346;2023-04-25T15:07:00;12.20;99.90
12588;DHT22;6359;51.450;7.346;2023-04-25T15:09:28;11.80;99.90
12588;DHT22;6359;51.450;7.346;2023-04-25T15:11:55;11.50;99.90
12588;DHT22;6359;51.450;7.346;2023-04-25T15:14:22;11.40;99.90
12588;DHT22;6359;51.450;7.346;2023-04-25T15:16:49;11.20;99.90
12588;DHT22;6359;51.450;7.346;2023-04-25T15:19:16;11.20;99.90
12588;DHT22;6359;51.450;7.346;2023-04-25T15:21:44;11.00;99.90
12588;DHT22;6359;51.450;7.346;2023-04-25T15:24:11;10.90;99.90
12588;DHT22;6359;51.450;7.346;2023-04-25T15:26:40;10.70;99.90
12588;DHT22;6359;51.450;7.346;2023-04-25T15:29:07;10.60;99.90
12588;DHT22;6359;51.450;7.346;2023-04-25T15:31:34;10.70;99.90
12588;DHT22;6359;51.450;7.346;2023-04-25T15:34:01;10.60;99.90
12588;DHT22;6359;51.450;7.346;2023-04-25T15:36:28;10.40;99.90
12588;DHT22;6359;51.450;7.346;2023-04-25T15:38:57;10.50;99.90
12588;DHT22;6359;51.450;7.346;2023-04-25T15:41:24;10.80;99.90
12588;DHT22;6359;51.450;7.346;2023-04-25T15:43:52;10.80;99.90
12588;DHT22;6359;51.450;7.346;2023-04-25T15:46:19;11.20;99.90
12588;DHT22;6359;51.450;7.346;2023-04-25T15:48:48;11.80;99.90
12588;DHT22;6359;51.450;7.346;2023-04-25T15:51:15;11.60;99.90
12588;DHT22;6359;51.450;7.346;2023-04-25T15:53:42;11.70;99.90
12588;DHT22;6359;51.450;7.346;2023-04-25T15:56:10;11.90;99.90
12588;DHT22;6359;51.450;7.346;2023-04-25T15:58:37;11.80;99.90